Aérodrome :
LOGIN :

S'inscrire | Disclaimer

   EN    FR    IT 

 










Légende :    VFR   VFR Marginal   IFR   IFR Intensif   IFR Très Intensif
Visi : 
Plafond : 
>= 8 km
>= 3000ft
5 à 8 km
1000 à 3000 ft
1500m à 5 km
500 à 1000 ft
800 à 1500m
200 à 500 ft
< 800m
< 200 ft
Symboles :   Orages  Brouillard  Fortes neiges  Fortes précipitations  Vent > 20 kt
SIGMETs :   Divers  Orages  Givrage  Turbulence  Onde Orograph.  Cendres Volcan.






- Altitude de l'aérodrome : 326 ft
- Code IATA : LCG


LECO - A Coruna

DERNIER METAR :
  • 151000Z 19004KT 140V240 9999 FEW024 SCT030 19/16 Q1015 TEMPO 3000 SHRA SCT030TCU

METARs EXPIRÉS :
  • 150930Z 20006KT 160V230 9999 -SHRA FEW020TCU SCT025 18/15 Q1015 TEMPO 3000 SHRA SCT030TCU
  • 150900Z 21009KT 180V240 9999 SCT020 18/15 Q1015 TEMPO 3000 SHRA SCT030TCU
  • 150830Z 16005KT 120V230 9999 FEW010 FEW030TCU 19/17 Q1015 TEMPO 3000 SHRA SCT030TCU
  • 150800Z 18004KT 9999 FEW010 FEW030TCU 17/15 Q1015 TEMPO 3000 SHRA SCT030TCU
  • 150730Z 17005KT 9999 FEW030TCU SCT042 16/15 Q1015 TEMPO 3000 SHRA SCT030TCU

TAF TAF LECO
Valide du 15 à 09h jusqu'au 16 à 09h UTC


150800Z 1509/1609 21008KT 9999 SCT020 SCT040 TX22/1513Z TN15/1602Z
PROB40
TEMPO 1509/1514 3000 RA SHRA SCT035TCU
PROB30
TEMPO 1510/1513 TS FEW040CB
PROB30
TEMPO 1521/1609 3000 -RADZ BR BKN010



MET'MAP, la Météo Aéronautique d'un coup d'oeil ! - Copyright ORBIFLY Décembre 2007 - Disclaimer

ORBIFLY MET'MAP TEAM :

Programmation & Développement : Alexandra Zaïnal
Sur une idée originale de : Baudouin d'Aumeries
Assistance à la programmation : Marc-Olivier Méhu
Soutien technique & logistique : Manuel Goepfert

Contact : metmap@orbifly.com




SOURCES & CREDITS :

   NOAA